Frio Town, Texas
Current Conditions -  °F | °C
As of 1:53 PM on Monday 22 Dec 2014 (Local Time) from KCOT Reporting Station
Clear Clear  
Wind Chill: 73°   Ceiling: Unl
Heat Index: 73°   Visibility: 10mi
Dew Point: 53°   Wind: 8mph
Humidity: 49%   Direction: 300°WNW
Pressure: 29.67"   Gusts: NA
Location:  28.8736°N, 99.1074°W
Report Text: KCOT 221953Z AUTO 30007KT 10SM CLR 23/12 A2967 RMK AO2 SLP043 T02280117
Loading
Personal Weather Stations






























Interactive Weather Map New forecast layout! Learn more

10-Day Weather Forecast

Advertisements
Track Severe Weather on mobile